createdAt,value
2023-02-05T00:00:57.252Z,1.23
2023-02-05T00:03:24.489Z,1.50
2023-02-05T00:05:51.684Z,1.35
2023-02-05T00:08:18.864Z,1.35
2023-02-05T00:10:51.600Z,0.98
2023-02-05T00:13:18.783Z,1.30
2023-02-05T00:15:46.041Z,1.00
2023-02-05T00:18:13.645Z,1.30
2023-02-05T00:20:41.155Z,1.08
2023-02-05T00:23:08.310Z,1.40
2023-02-05T00:25:35.741Z,1.20
2023-02-05T00:28:03.072Z,1.30
2023-02-05T00:30:30.425Z,1.30
2023-02-05T00:32:57.824Z,1.40
2023-02-05T00:35:24.977Z,0.73
2023-02-05T00:37:52.123Z,0.80
2023-02-05T00:40:19.344Z,1.00
2023-02-05T00:42:46.526Z,0.77
2023-02-05T00:45:13.681Z,1.00
2023-02-05T00:47:40.827Z,0.88
2023-02-05T00:50:08.128Z,0.90
2023-02-05T00:52:35.301Z,0.90
2023-02-05T00:55:02.469Z,1.00
2023-02-05T00:57:29.921Z,0.85
2023-02-05T00:59:57.140Z,0.75
2023-02-05T01:02:25.303Z,0.88
2023-02-05T01:04:52.623Z,0.90
2023-02-05T01:07:20.384Z,0.90
2023-02-05T01:09:47.521Z,0.80
2023-02-05T01:12:14.770Z,0.67
2023-02-05T01:14:42.835Z,0.75
2023-02-05T01:17:10.045Z,0.70
2023-02-05T01:19:37.401Z,0.70
2023-02-05T01:22:04.930Z,0.70
2023-02-05T01:24:32.180Z,0.70
2023-02-05T01:26:59.322Z,0.70
2023-02-05T01:29:28.425Z,0.75
2023-02-05T01:31:56.558Z,0.90
2023-02-05T01:34:23.707Z,0.68
2023-02-05T01:36:50.867Z,0.80
2023-02-05T01:39:18.066Z,0.60
2023-02-05T01:41:46.526Z,0.65
2023-02-05T01:44:14.634Z,0.80
2023-02-05T01:46:42.602Z,0.80
2023-02-05T01:49:11.563Z,0.90
2023-02-05T01:51:38.790Z,0.98
2023-02-05T01:54:06.083Z,1.10
2023-02-05T01:56:35.001Z,0.80
2023-02-05T01:59:09.214Z,0.70
2023-02-05T02:01:36.838Z,0.70
2023-02-05T02:04:04.735Z,0.90
2023-02-05T02:06:33.012Z,1.00
2023-02-05T02:09:00.200Z,0.90
2023-02-05T02:11:27.541Z,0.90
2023-02-05T02:13:54.751Z,1.05
2023-02-05T02:16:22.119Z,1.20
2023-02-05T02:18:49.295Z,1.05
2023-02-05T02:21:20.578Z,0.70
2023-02-05T02:23:56.932Z,0.98
2023-02-05T02:26:27.150Z,0.85
2023-02-05T02:29:00.951Z,1.00
2023-02-05T02:31:28.176Z,0.82
2023-02-05T02:33:57.476Z,0.80
2023-02-05T02:36:31.219Z,1.17
2023-02-05T02:39:08.965Z,1.10
2023-02-05T02:41:51.368Z,0.77
2023-02-05T02:44:27.046Z,0.90
2023-02-05T02:46:58.156Z,0.80
2023-02-05T02:49:28.906Z,0.80
2023-02-05T02:51:56.169Z,0.90
2023-02-05T02:54:23.442Z,0.80
2023-02-05T02:56:50.572Z,0.88
2023-02-05T02:59:18.340Z,0.90
2023-02-05T03:01:53.357Z,0.88
2023-02-05T03:04:53.523Z,0.60
2023-02-05T03:07:25.081Z,1.08
2023-02-05T03:09:58.195Z,0.80
2023-02-05T03:12:25.368Z,1.15
2023-02-05T03:14:52.896Z,0.85
2023-02-05T03:17:20.307Z,1.45
2023-02-05T03:19:51.742Z,0.88
2023-02-05T03:22:18.900Z,1.00
2023-02-05T03:24:46.088Z,1.10
2023-02-05T03:27:13.274Z,0.95
2023-02-05T03:29:44.660Z,1.25
2023-02-05T03:32:14.902Z,1.00
2023-02-05T03:34:53.993Z,0.90
2023-02-05T03:37:24.059Z,0.85
2023-02-05T03:40:03.264Z,1.10
2023-02-05T03:42:36.397Z,0.90
2023-02-05T03:45:13.957Z,1.17
2023-02-05T03:47:41.080Z,0.90
2023-02-05T03:50:13.574Z,0.90
2023-02-05T03:52:46.205Z,1.00
2023-02-05T03:55:18.410Z,0.90
2023-02-05T03:57:45.589Z,0.95
2023-02-05T04:00:13.018Z,1.00
2023-02-05T04:02:40.230Z,1.20
2023-02-05T04:05:07.519Z,0.70
2023-02-05T04:07:34.676Z,0.90
2023-02-05T04:10:01.892Z,1.48
2023-02-05T04:12:29.140Z,0.70
2023-02-05T04:14:56.292Z,0.88
2023-02-05T04:17:23.413Z,0.90
2023-02-05T04:19:50.610Z,0.98
2023-02-05T04:22:17.742Z,1.10
2023-02-05T04:24:44.917Z,0.93
2023-02-05T04:27:12.088Z,1.17
2023-02-05T04:29:39.276Z,1.15
2023-02-05T04:32:06.469Z,1.02
2023-02-05T04:34:33.651Z,0.90
2023-02-05T04:37:00.822Z,0.90
2023-02-05T04:39:28.089Z,0.88
2023-02-05T04:41:55.269Z,0.82
2023-02-05T04:44:22.504Z,0.93
2023-02-05T04:46:49.632Z,0.90
2023-02-05T04:49:16.828Z,0.90
2023-02-05T04:51:43.955Z,0.70
2023-02-05T04:54:11.133Z,0.70
2023-02-05T04:56:39.087Z,1.02
2023-02-05T04:59:06.291Z,1.38
2023-02-05T05:01:33.541Z,0.90
2023-02-05T05:04:00.687Z,1.40
2023-02-05T05:06:27.912Z,1.42
2023-02-05T05:08:55.049Z,1.10
2023-02-05T05:11:22.228Z,1.40
2023-02-05T05:13:49.813Z,1.15
2023-02-05T05:16:17.046Z,1.13
2023-02-05T05:18:44.257Z,1.40
2023-02-05T05:21:11.464Z,1.10
2023-02-05T05:23:38.702Z,1.15
2023-02-05T05:26:06.655Z,0.98
2023-02-05T05:28:34.870Z,1.52
2023-02-05T05:31:07.700Z,1.10
2023-02-05T05:33:34.959Z,1.33
2023-02-05T05:36:02.079Z,1.80
2023-02-05T05:38:29.272Z,1.70
2023-02-05T05:41:15.197Z,1.48
2023-02-05T05:43:48.474Z,1.48
2023-02-05T05:46:16.397Z,1.77
2023-02-05T05:48:43.674Z,1.45
2023-02-05T05:51:10.991Z,1.25
2023-02-05T05:53:38.132Z,0.90
2023-02-05T05:56:05.461Z,1.40
2023-02-05T05:58:32.589Z,1.20
2023-02-05T06:00:59.745Z,1.30
2023-02-05T06:03:27.016Z,1.42
2023-02-05T06:05:54.154Z,1.52
2023-02-05T06:08:21.280Z,1.10
2023-02-05T06:10:48.461Z,1.63
2023-02-05T06:13:15.603Z,1.15
2023-02-05T06:15:42.905Z,1.40
2023-02-05T06:18:10.122Z,1.80
2023-02-05T06:20:37.273Z,1.33
2023-02-05T06:23:04.423Z,1.42
2023-02-05T06:25:31.860Z,1.10
2023-02-05T06:27:59.230Z,1.25
2023-02-05T06:30:26.380Z,1.15
2023-02-05T06:32:53.568Z,1.15
2023-02-05T06:35:20.848Z,1.13
2023-02-05T06:37:48.073Z,1.45
2023-02-05T06:40:17.978Z,1.45
2023-02-05T06:42:45.550Z,1.40
2023-02-05T06:45:12.829Z,1.10
2023-02-05T06:47:39.947Z,1.02
2023-02-05T06:50:07.321Z,1.35
2023-02-05T06:52:34.495Z,1.05
2023-02-05T06:55:01.648Z,1.00
2023-02-05T06:57:28.986Z,1.10
2023-02-05T06:59:56.156Z,1.33
2023-02-05T07:02:23.325Z,1.02
2023-02-05T07:04:50.490Z,1.15
2023-02-05T07:07:17.656Z,0.95
2023-02-05T07:09:44.921Z,0.90
2023-02-05T07:12:12.080Z,1.00
2023-02-05T07:14:39.735Z,1.20
2023-02-05T07:17:07.646Z,0.70
2023-02-05T07:19:35.028Z,0.95
2023-02-05T07:22:02.199Z,0.90
2023-02-05T07:24:29.387Z,0.80
2023-02-05T07:26:56.528Z,0.90
2023-02-05T07:29:23.643Z,0.80
2023-02-05T07:31:51.311Z,0.80
2023-02-05T07:34:19.271Z,0.80
2023-02-05T07:36:46.424Z,0.65
2023-02-05T07:39:13.584Z,0.80
2023-02-05T07:41:40.702Z,0.70
2023-02-05T07:44:07.856Z,0.75
2023-02-05T07:46:35.078Z,0.70
2023-02-05T07:49:02.678Z,0.77
2023-02-05T07:51:29.949Z,0.88
2023-02-05T07:53:57.161Z,1.10
2023-02-05T07:56:25.827Z,0.80
2023-02-05T07:58:53.080Z,0.60
2023-02-05T08:01:20.274Z,0.50
2023-02-05T08:03:47.478Z,0.65
2023-02-05T08:06:15.197Z,0.70
2023-02-05T08:08:42.419Z,0.60
2023-02-05T08:11:11.465Z,0.77
2023-02-05T08:13:38.913Z,0.60
2023-02-05T08:16:06.808Z,0.60
2023-02-05T08:18:34.142Z,0.40
2023-02-05T08:21:01.296Z,0.50
2023-02-05T08:23:28.478Z,0.60
2023-02-05T08:25:56.276Z,0.50
2023-02-05T08:28:23.622Z,0.40
2023-02-05T08:30:50.860Z,0.63
2023-02-05T08:33:18.091Z,0.50
2023-02-05T08:35:45.221Z,0.50
2023-02-05T08:38:12.440Z,0.40
2023-02-05T08:40:39.583Z,0.57
2023-02-05T08:43:08.470Z,0.50
2023-02-05T08:45:36.223Z,0.47
2023-02-05T08:48:03.621Z,1.10
2023-02-05T08:50:30.777Z,0.60
2023-02-05T08:52:57.997Z,0.50
2023-02-05T08:55:25.225Z,0.60
2023-02-05T08:57:52.943Z,0.47
2023-02-05T09:00:21.199Z,0.47
2023-02-05T09:02:48.404Z,0.82
2023-02-05T09:05:15.581Z,0.50
2023-02-05T09:07:42.791Z,0.50
2023-02-05T09:10:10.593Z,0.32
2023-02-05T09:12:37.789Z,0.40
2023-02-05T09:15:05.514Z,0.80
2023-02-05T09:17:32.677Z,0.40
2023-02-05T09:19:59.881Z,0.40
2023-02-05T09:22:27.027Z,0.40
2023-02-05T09:24:54.202Z,0.30
2023-02-05T09:27:21.429Z,0.40
2023-02-05T09:29:48.561Z,0.30
2023-02-05T09:32:15.830Z,0.50
2023-02-05T09:34:43.146Z,0.50
2023-02-05T09:37:10.315Z,0.75
2023-02-05T09:40:19.338Z,0.50
2023-02-05T09:42:44.977Z,0.50
2023-02-05T09:45:15.211Z,0.45
2023-02-05T09:47:43.547Z,0.50
2023-02-05T09:50:11.469Z,0.57
2023-02-05T09:52:39.346Z,0.40
2023-02-05T09:55:18.420Z,0.57
2023-02-05T09:57:45.592Z,0.40
2023-02-05T10:00:17.868Z,0.60
2023-02-05T10:02:50.834Z,0.50
2023-02-05T10:05:18.187Z,0.50
2023-02-05T10:07:45.332Z,0.40
2023-02-05T10:10:31.107Z,0.45
2023-02-05T10:12:58.234Z,0.43
2023-02-05T10:15:43.962Z,0.82
2023-02-05T10:18:23.219Z,0.43
2023-02-05T10:20:56.838Z,0.60
2023-02-05T10:23:24.023Z,0.60
2023-02-05T10:26:14.321Z,0.65
2023-02-05T10:29:14.106Z,0.52
2023-02-05T10:31:42.438Z,0.63
2023-02-05T10:34:15.840Z,1.00
2023-02-05T10:36:42.977Z,0.50
2023-02-05T10:39:16.980Z,0.50
2023-02-05T10:41:45.843Z,0.50
2023-02-05T10:44:16.053Z,0.40
2023-02-05T10:46:51.384Z,0.45
2023-02-05T10:49:25.139Z,0.70
2023-02-05T10:51:53.257Z,0.60
2023-02-05T10:54:30.242Z,0.57
2023-02-05T10:56:58.404Z,0.63
2023-02-05T10:59:27.691Z,0.60
2023-02-05T11:01:55.309Z,0.60
2023-02-05T11:04:45.760Z,0.77
2023-02-05T11:07:13.551Z,0.80
2023-02-05T11:09:40.852Z,0.63
2023-02-05T11:12:17.651Z,0.80
2023-02-05T11:14:45.839Z,0.75
2023-02-05T11:17:25.580Z,0.80
2023-02-05T11:20:16.692Z,0.90
2023-02-05T11:22:45.954Z,0.70
2023-02-05T11:25:18.994Z,0.80
2023-02-05T11:27:59.322Z,0.70
2023-02-05T11:33:19.748Z,0.82
2023-02-05T11:35:52.470Z,0.90
2023-02-05T11:38:39.955Z,1.08
2023-02-05T11:41:07.757Z,0.60
2023-02-05T11:43:41.770Z,0.73
2023-02-05T11:46:09.636Z,0.90
2023-02-05T11:48:36.860Z,0.70
2023-02-05T11:51:04.627Z,0.63
2023-02-05T11:53:34.536Z,0.80
2023-02-05T11:56:03.170Z,0.70
2023-02-05T11:58:36.843Z,0.85
2023-02-05T12:01:21.212Z,0.88
2023-02-05T12:04:01.470Z,0.95
2023-02-05T12:06:31.363Z,0.90
2023-02-05T12:08:58.631Z,0.80
2023-02-05T12:11:30.355Z,0.90
2023-02-05T12:13:57.475Z,0.93
2023-02-05T12:16:24.671Z,0.90
2023-02-05T12:18:51.868Z,1.00
2023-02-05T12:21:28.118Z,1.08
2023-02-05T12:23:55.238Z,1.13
2023-02-05T12:26:27.293Z,0.93
2023-02-05T12:28:57.448Z,0.63
2023-02-05T12:31:24.661Z,0.90
2023-02-05T12:34:01.409Z,0.93
2023-02-05T12:36:29.017Z,0.95
2023-02-05T12:39:15.019Z,1.10
2023-02-05T12:41:52.298Z,0.93
2023-02-05T12:44:24.628Z,0.82
2023-02-05T12:46:57.924Z,0.90
2023-02-05T12:49:34.197Z,1.00
2023-02-05T12:52:07.601Z,1.00
2023-02-05T12:54:51.031Z,0.97
2023-02-05T12:57:21.590Z,1.20
2023-02-05T12:59:56.761Z,0.88
2023-02-05T13:02:27.055Z,0.90
2023-02-05T13:05:12.671Z,0.90
2023-02-05T13:07:41.554Z,0.80
2023-02-05T13:10:14.932Z,1.33
2023-02-05T13:12:43.248Z,0.60
2023-02-05T13:15:18.498Z,0.68
2023-02-05T13:17:56.361Z,0.93
2023-02-05T13:20:45.683Z,0.50
2023-02-05T13:23:31.744Z,0.98
2023-02-05T13:26:17.292Z,0.70
2023-02-05T13:28:48.834Z,0.90
2023-02-05T13:31:21.580Z,0.60
2023-02-05T13:33:48.958Z,0.88
2023-02-05T13:36:25.350Z,0.75
2023-02-05T13:39:01.430Z,0.77
2023-02-05T13:41:34.514Z,0.80
2023-02-05T13:44:04.584Z,0.70
2023-02-05T13:46:34.556Z,0.80
2023-02-05T13:49:04.580Z,0.90
2023-02-05T13:51:49.176Z,0.70
2023-02-05T13:54:19.527Z,1.10
2023-02-05T13:57:05.361Z,1.38
2023-02-05T13:59:35.530Z,1.10
2023-02-05T14:02:02.737Z,1.20
2023-02-05T14:04:30.140Z,0.98
2023-02-05T14:06:58.594Z,1.00
2023-02-05T14:09:45.997Z,1.20
2023-02-05T14:12:13.706Z,1.10
2023-02-05T14:14:41.893Z,1.10
2023-02-05T14:17:27.825Z,1.73
2023-02-05T14:20:00.713Z,2.95
2023-02-05T14:22:43.633Z,2.47
2023-02-05T14:25:29.672Z,1.33
2023-02-05T14:27:57.235Z,1.13
2023-02-05T14:30:30.814Z,0.93
2023-02-05T14:32:59.245Z,1.10
2023-02-05T14:35:39.993Z,0.75
2023-02-05T14:38:26.044Z,0.75
2023-02-05T14:41:03.352Z,1.05
2023-02-05T14:43:37.135Z,1.20
2023-02-05T14:46:08.328Z,1.00
2023-02-05T14:48:37.081Z,0.80
2023-02-05T14:51:08.433Z,0.60
2023-02-05T14:53:36.007Z,0.85
2023-02-05T14:56:03.338Z,0.70
2023-02-05T14:58:32.411Z,0.80
2023-02-05T15:01:18.483Z,0.90
2023-02-05T15:03:45.662Z,0.83
2023-02-05T15:06:15.894Z,1.00
2023-02-05T15:08:44.410Z,0.75
2023-02-05T15:11:30.396Z,1.02
2023-02-05T15:14:16.562Z,1.10
2023-02-05T15:16:43.715Z,1.10
2023-02-05T15:19:10.904Z,0.83
2023-02-05T15:21:40.623Z,0.80
2023-02-05T15:24:10.867Z,1.83
2023-02-05T15:26:38.000Z,1.55
2023-02-05T15:29:09.995Z,1.00
2023-02-05T15:31:47.331Z,1.00
2023-02-05T15:34:14.471Z,1.17
2023-02-05T15:36:43.019Z,1.83
2023-02-05T15:39:13.534Z,2.20
2023-02-05T15:41:41.420Z,1.73
2023-02-05T15:44:18.036Z,1.60
2023-02-05T15:46:45.234Z,1.30
2023-02-05T15:49:12.402Z,1.50
2023-02-05T15:51:39.571Z,1.17
2023-02-05T15:54:07.891Z,1.25
2023-02-05T15:56:35.456Z,1.10
2023-02-05T15:59:06.408Z,0.80
2023-02-05T16:01:33.648Z,1.15
2023-02-05T16:04:01.028Z,1.20
2023-02-05T16:06:28.784Z,0.80
2023-02-05T16:08:56.128Z,1.08
2023-02-05T16:11:30.182Z,0.88
2023-02-05T16:14:04.385Z,0.90
2023-02-05T16:16:31.605Z,0.95
2023-02-05T16:18:59.400Z,1.05
2023-02-05T16:21:30.733Z,0.90
2023-02-05T16:23:59.074Z,0.93
2023-02-05T16:26:27.796Z,0.90
2023-02-05T16:28:56.489Z,1.00
2023-02-05T16:31:25.381Z,0.90
2023-02-05T16:33:54.265Z,2.17
2023-02-05T16:36:25.248Z,2.20
2023-02-05T16:39:02.124Z,1.50
2023-02-05T16:41:29.321Z,1.13
2023-02-05T16:43:56.499Z,1.10
2023-02-05T16:46:24.644Z,1.25
2023-02-05T16:48:52.908Z,1.60
2023-02-05T16:51:23.159Z,1.30
2023-02-05T16:53:50.427Z,1.30
2023-02-05T16:56:27.916Z,1.58
2023-02-05T16:58:56.079Z,2.33
2023-02-05T17:01:49.775Z,3.53
2023-02-05T17:04:28.528Z,3.70
2023-02-05T17:06:56.937Z,4.32
2023-02-05T17:09:31.544Z,4.18
2023-02-05T17:12:17.282Z,3.70
2023-02-05T17:14:53.308Z,2.80
2023-02-05T17:17:20.536Z,2.38
2023-02-05T17:20:06.033Z,2.55
2023-02-05T17:22:34.687Z,4.95
2023-02-05T17:25:02.219Z,2.95
2023-02-05T17:27:30.613Z,2.42
2023-02-05T17:29:58.461Z,1.60
2023-02-05T17:32:25.949Z,1.88
2023-02-05T17:34:53.272Z,1.70
2023-02-05T17:37:20.414Z,1.70
2023-02-05T17:39:47.577Z,2.22
2023-02-05T17:42:22.139Z,2.70
2023-02-05T17:44:49.362Z,2.22
2023-02-05T17:47:16.601Z,2.35
2023-02-05T17:49:43.820Z,2.53
2023-02-05T17:52:11.027Z,2.28
2023-02-05T17:54:38.248Z,1.63
2023-02-05T17:57:11.287Z,1.80
2023-02-05T17:59:38.614Z,1.70
2023-02-05T18:02:07.091Z,1.70
2023-02-05T18:04:34.287Z,2.20
2023-02-05T18:07:01.460Z,2.08
2023-02-05T18:09:28.754Z,2.97
2023-02-05T18:11:55.982Z,2.60
2023-02-05T18:14:23.663Z,2.95
2023-02-05T18:16:50.975Z,1.77
2023-02-05T18:19:18.257Z,1.98
2023-02-05T18:21:47.212Z,1.83
2023-02-05T18:24:15.015Z,1.63
2023-02-05T18:26:42.238Z,1.98
2023-02-05T18:29:09.484Z,2.17
2023-02-05T18:31:37.472Z,1.90
2023-02-05T18:34:04.793Z,2.10
2023-02-05T18:36:32.040Z,2.22
2023-02-05T18:38:59.361Z,2.15
2023-02-05T18:41:28.718Z,1.95
2023-02-05T18:43:56.358Z,2.50
2023-02-05T18:46:23.735Z,2.22
2023-02-05T18:48:51.198Z,2.90
2023-02-05T18:51:19.252Z,2.92
2023-02-05T18:53:47.467Z,2.60
2023-02-05T18:56:21.127Z,2.60
2023-02-05T18:58:52.255Z,2.20
2023-02-05T19:01:20.543Z,2.30
2023-02-05T19:03:47.871Z,3.10
2023-02-05T19:06:15.888Z,3.40
2023-02-05T19:08:43.334Z,3.25
2023-02-05T19:11:11.635Z,2.65
2023-02-05T19:13:38.799Z,2.40
2023-02-05T19:16:11.455Z,3.53
2023-02-05T19:18:38.635Z,3.10
2023-02-05T19:21:09.342Z,2.28
2023-02-05T19:23:36.686Z,2.78
2023-02-05T19:26:07.095Z,2.97
2023-02-05T19:28:34.473Z,2.30
2023-02-05T19:31:05.032Z,3.00
2023-02-05T19:33:32.603Z,5.25
2023-02-05T19:36:00.140Z,4.10
2023-02-05T19:38:27.406Z,5.20
2023-02-05T19:40:54.523Z,7.07
2023-02-05T19:43:21.749Z,2.78
2023-02-05T19:45:48.904Z,2.40
2023-02-05T19:48:16.197Z,11.98
2023-02-05T19:50:43.368Z,2.40
2023-02-05T19:53:10.533Z,2.47
2023-02-05T19:55:37.778Z,2.75
2023-02-05T19:58:04.999Z,2.60
2023-02-05T20:00:32.172Z,2.58
2023-02-05T20:02:59.351Z,4.68
2023-02-05T20:05:26.619Z,4.63
2023-02-05T20:07:53.953Z,28.23
2023-02-05T20:10:21.121Z,19.15
2023-02-05T20:12:49.091Z,8.38
2023-02-05T20:15:16.502Z,8.73
2023-02-05T20:17:43.809Z,5.00
2023-02-05T20:20:22.234Z,3.83
2023-02-05T20:22:55.483Z,3.60
2023-02-05T20:25:22.725Z,3.22
2023-02-05T20:27:49.941Z,3.22
2023-02-05T20:30:36.064Z,3.42
2023-02-05T20:33:03.483Z,3.38
2023-02-05T20:35:30.637Z,4.30
2023-02-05T20:37:57.850Z,5.00
2023-02-05T20:40:25.133Z,4.97
2023-02-05T20:42:52.316Z,4.32
2023-02-05T20:45:19.486Z,2.92
2023-02-05T20:47:46.639Z,3.28
2023-02-05T20:50:13.793Z,3.23
2023-02-05T20:52:40.956Z,2.85
2023-02-05T20:55:08.415Z,2.35
2023-02-05T20:57:35.935Z,2.22
2023-02-05T21:00:03.074Z,2.50
2023-02-05T21:02:30.253Z,2.17
2023-02-05T21:04:57.387Z,1.80
2023-02-05T21:07:29.610Z,1.80
2023-02-05T21:09:57.249Z,2.28
2023-02-05T21:12:29.179Z,2.00
2023-02-05T21:14:56.352Z,1.90
2023-02-05T21:17:23.500Z,1.67
2023-02-05T21:19:50.691Z,1.90
2023-02-05T21:22:17.836Z,1.90
2023-02-05T21:24:45.005Z,1.90
2023-02-05T21:27:12.166Z,1.50
2023-02-05T21:29:39.386Z,1.60
2023-02-05T21:32:08.019Z,1.95
2023-02-05T21:34:35.221Z,2.00
2023-02-05T21:37:02.382Z,2.08
2023-02-05T21:39:29.582Z,1.98
2023-02-05T21:41:56.738Z,1.70
2023-02-05T21:44:24.220Z,1.63
2023-02-05T21:46:53.303Z,1.73
2023-02-05T21:49:20.580Z,1.70
2023-02-05T21:51:48.711Z,1.67
2023-02-05T21:54:16.159Z,1.88
2023-02-05T21:56:43.553Z,1.83
2023-02-05T21:59:11.416Z,1.52
2023-02-05T22:01:38.620Z,1.70
2023-02-05T22:04:07.728Z,1.90
2023-02-05T22:06:36.115Z,2.20
2023-02-05T22:09:04.109Z,2.10
2023-02-05T22:11:31.321Z,1.92
2023-02-05T22:13:58.466Z,2.00
2023-02-05T22:16:26.547Z,1.90
2023-02-05T22:18:53.881Z,2.38
2023-02-05T22:21:24.597Z,2.00
2023-02-05T22:23:52.282Z,2.05
2023-02-05T22:26:20.469Z,1.92
2023-02-05T22:28:47.808Z,2.10
2023-02-05T22:31:15.718Z,2.20
2023-02-05T22:33:43.759Z,2.53
2023-02-05T22:36:11.149Z,2.42
2023-02-05T22:38:39.083Z,2.30
2023-02-05T22:41:13.206Z,2.97
2023-02-05T22:43:40.587Z,2.75
2023-02-05T22:46:08.400Z,2.85
2023-02-05T22:48:36.579Z,2.60
2023-02-05T22:51:07.985Z,2.67
2023-02-05T22:53:37.246Z,2.90
2023-02-05T22:56:05.248Z,3.20
2023-02-05T22:58:32.504Z,2.35
2023-02-05T23:00:59.696Z,3.42
2023-02-05T23:03:26.960Z,3.10
2023-02-05T23:05:54.152Z,2.83
2023-02-05T23:08:21.289Z,3.30
2023-02-05T23:10:48.461Z,3.05
2023-02-05T23:13:15.620Z,3.35
2023-02-05T23:15:42.795Z,3.35
2023-02-05T23:18:09.964Z,2.97
2023-02-05T23:20:37.218Z,3.30
2023-02-05T23:23:04.464Z,3.45
2023-02-05T23:25:31.667Z,3.60
2023-02-05T23:27:58.843Z,3.58
2023-02-05T23:30:26.150Z,4.40
2023-02-05T23:32:54.140Z,3.92
2023-02-05T23:35:21.361Z,4.53
2023-02-05T23:37:48.741Z,4.20
2023-02-05T23:40:16.049Z,4.55
2023-02-05T23:42:43.407Z,4.55
2023-02-05T23:45:10.846Z,4.75
2023-02-05T23:47:38.041Z,4.97
2023-02-05T23:50:05.356Z,4.68
2023-02-05T23:52:32.537Z,4.60
2023-02-05T23:55:00.130Z,4.88
2023-02-05T23:57:28.729Z,5.40
